createdAt,value
2022-08-29T00:01:01.502Z,102139.91
2022-08-29T00:03:31.540Z,102130.31
2022-08-29T00:06:00.988Z,102129.06
2022-08-29T00:08:30.473Z,102125.47
2022-08-29T00:11:00.162Z,102120.41
2022-08-29T00:13:29.557Z,102118.44
2022-08-29T00:15:58.996Z,102114.81
2022-08-29T00:18:28.444Z,102105.50
2022-08-29T00:20:58.070Z,102108.78
2022-08-29T00:23:27.643Z,102110.44
2022-08-29T00:25:57.538Z,102116.53
2022-08-29T00:28:27.123Z,102114.19
2022-08-29T00:30:56.554Z,102111.84
2022-08-29T00:33:25.977Z,102107.06
2022-08-29T00:35:55.418Z,102103.91
2022-08-29T00:38:27.783Z,102102.34
2022-08-29T00:41:00.439Z,102109.66
2022-08-29T00:43:33.732Z,102118.66
2022-08-29T00:46:28.199Z,102124.41
2022-08-29T00:49:01.672Z,102131.00
2022-08-29T00:51:31.262Z,102118.94
2022-08-29T00:54:04.012Z,102120.66
2022-08-29T00:56:34.709Z,102120.75
2022-08-29T00:59:15.855Z,102123.66
2022-08-29T01:01:45.803Z,102116.78
2022-08-29T01:04:15.938Z,102109.50
2022-08-29T01:06:55.548Z,102111.25
2022-08-29T01:09:26.211Z,102123.47
2022-08-29T01:12:09.028Z,102115.50
2022-08-29T01:14:38.911Z,102123.56
2022-08-29T01:17:11.279Z,102125.59
2022-08-29T01:19:49.742Z,102122.81
2022-08-29T01:22:40.506Z,102123.66
2022-08-29T01:25:25.200Z,102122.09
2022-08-29T01:28:28.686Z,102131.06
2022-08-29T01:31:03.753Z,102128.69
2022-08-29T01:33:50.053Z,102123.84
2022-08-29T01:36:23.914Z,102131.13
2022-08-29T01:38:54.596Z,102116.66
2022-08-29T01:41:24.707Z,102129.16
2022-08-29T01:43:57.079Z,102121.09
2022-08-29T01:46:36.283Z,102128.47
2022-08-29T01:49:09.595Z,102129.75
2022-08-29T01:51:39.978Z,102129.41
2022-08-29T01:54:11.670Z,102124.16
2022-08-29T01:56:44.833Z,102128.72
2022-08-29T01:59:18.511Z,102134.00
2022-08-29T02:01:57.261Z,102129.16
2022-08-29T02:04:27.454Z,102128.34
2022-08-29T02:06:56.908Z,102129.16
2022-08-29T02:09:27.704Z,102133.22
2022-08-29T02:11:58.740Z,102133.25
2022-08-29T02:14:28.359Z,102135.28
2022-08-29T02:16:57.948Z,102137.72
2022-08-29T02:19:27.564Z,102137.34
2022-08-29T02:21:57.317Z,102132.91
2022-08-29T02:24:26.919Z,102143.00
2022-08-29T02:26:58.383Z,102134.06
2022-08-29T02:29:37.107Z,102126.81
2022-08-29T02:32:09.855Z,102129.69
2022-08-29T02:34:39.559Z,102124.47
2022-08-29T02:37:12.815Z,102120.88
2022-08-29T02:39:42.415Z,102128.13
2022-08-29T02:42:11.839Z,102124.53
2022-08-29T02:44:41.169Z,102130.97
2022-08-29T02:47:11.174Z,102126.16
2022-08-29T02:49:40.565Z,102129.38
2022-08-29T02:52:11.386Z,102139.03
2022-08-29T02:54:40.857Z,102137.84
2022-08-29T02:57:10.190Z,102126.06
2022-08-29T02:59:42.236Z,102132.94
2022-08-29T03:02:13.641Z,102130.91
2022-08-29T03:04:43.051Z,102130.91
2022-08-29T03:07:12.380Z,102131.75
2022-08-29T03:09:42.810Z,102130.94
2022-08-29T03:12:12.132Z,102131.78
2022-08-29T03:14:43.807Z,102128.13
2022-08-29T03:17:13.213Z,102122.09
2022-08-29T03:19:42.623Z,102118.03
2022-08-29T03:22:12.312Z,102123.31
2022-08-29T03:24:41.937Z,102126.94
2022-08-29T03:27:11.224Z,102124.50
2022-08-29T03:29:41.049Z,102123.75
2022-08-29T03:32:10.560Z,102119.72
2022-08-29T03:34:41.800Z,102124.56
2022-08-29T03:37:11.145Z,102121.72
2022-08-29T03:39:40.843Z,102116.50
2022-08-29T03:42:12.312Z,102118.91
2022-08-29T03:44:43.878Z,102123.78
2022-08-29T03:47:13.562Z,102117.31
2022-08-29T03:49:43.595Z,102117.31
2022-08-29T03:52:13.029Z,102119.72
2022-08-29T03:54:42.311Z,102114.84
2022-08-29T03:57:14.247Z,102118.50
2022-08-29T03:59:43.755Z,102118.13
2022-08-29T04:02:13.384Z,102120.53
2022-08-29T04:04:55.256Z,102113.28
2022-08-29T04:07:24.666Z,102114.94
2022-08-29T04:09:54.103Z,102111.28
2022-08-29T04:12:23.701Z,102119.78
2022-08-29T04:14:53.035Z,102112.09
2022-08-29T04:17:22.513Z,102112.88
2022-08-29T04:19:51.856Z,102114.13
2022-08-29T04:22:21.426Z,102107.63
2022-08-29T04:24:50.788Z,102106.81
2022-08-29T04:27:20.127Z,102115.75
2022-08-29T04:29:50.077Z,102110.53
2022-08-29T04:32:19.983Z,102110.16
2022-08-29T04:34:49.358Z,102107.75
2022-08-29T04:37:18.687Z,102105.75
2022-08-29T04:39:48.048Z,102074.78
2022-08-29T04:42:20.255Z,102094.13
2022-08-29T04:44:50.301Z,102104.16
2022-08-29T04:47:21.687Z,102106.19
2022-08-29T04:49:56.540Z,102105.00
2022-08-29T04:52:26.802Z,102111.09
2022-08-29T04:54:56.279Z,102108.72
2022-08-29T04:57:26.016Z,102108.75
2022-08-29T04:59:59.965Z,102110.41
2022-08-29T05:02:30.791Z,102107.19
2022-08-29T05:05:00.418Z,102106.38
2022-08-29T05:07:30.208Z,102109.16
2022-08-29T05:10:09.529Z,102108.81
2022-08-29T05:12:39.786Z,102112.88
2022-08-29T05:15:10.625Z,102120.13
2022-08-29T05:17:40.153Z,102116.13
2022-08-29T05:20:13.507Z,102107.22
2022-08-29T05:22:43.664Z,102124.97
2022-08-29T05:25:18.243Z,102118.53
2022-08-29T05:27:49.032Z,102132.19
2022-08-29T05:30:34.816Z,102132.13
2022-08-29T05:33:05.002Z,102139.72
2022-08-29T05:35:35.732Z,102135.25
2022-08-29T05:38:09.191Z,102123.88
2022-08-29T05:40:41.337Z,102120.97
2022-08-29T05:43:14.198Z,102129.81
2022-08-29T05:45:43.542Z,102136.56
2022-08-29T05:48:14.983Z,102139.72
2022-08-29T05:50:45.733Z,102146.88
2022-08-29T05:53:18.988Z,102130.63
2022-08-29T05:55:48.365Z,102141.00
2022-08-29T05:58:18.439Z,102140.09
2022-08-29T06:00:49.755Z,102137.56
2022-08-29T06:03:19.780Z,102141.47
2022-08-29T06:05:54.360Z,102148.63
2022-08-29T06:08:23.911Z,102154.13
2022-08-29T06:10:53.379Z,102150.00
2022-08-29T06:13:22.791Z,102158.78
2022-08-29T06:15:52.479Z,102156.22
2022-08-29T06:18:22.957Z,102158.03
2022-08-29T06:21:09.030Z,102163.25
2022-08-29T06:23:39.467Z,102167.19
2022-08-29T06:26:10.753Z,102169.88
2022-08-29T06:28:41.988Z,102168.16
2022-08-29T06:31:17.809Z,102172.50
2022-08-29T06:33:47.289Z,102160.28
2022-08-29T06:36:16.751Z,102171.47
2022-08-29T06:38:46.428Z,102176.25
2022-08-29T06:41:19.146Z,102182.53
2022-08-29T06:43:48.558Z,102185.94
2022-08-29T06:46:30.946Z,102180.41
2022-08-29T06:49:02.269Z,102179.81
2022-08-29T06:51:33.390Z,102175.03
2022-08-29T06:54:04.230Z,102173.06
2022-08-29T06:56:37.640Z,102167.31
2022-08-29T06:59:08.706Z,102176.16
2022-08-29T07:01:38.599Z,102170.31
2022-08-29T07:04:12.823Z,102171.19
2022-08-29T07:06:44.828Z,102174.56
2022-08-29T07:09:15.734Z,102173.47
2022-08-29T07:11:45.736Z,102173.56
2022-08-29T07:14:15.833Z,102177.69
2022-08-29T07:16:45.536Z,102172.22
2022-08-29T07:19:14.893Z,102182.44
2022-08-29T07:21:48.939Z,102187.41
2022-08-29T07:24:18.988Z,102190.25
2022-08-29T07:26:51.223Z,102189.56
2022-08-29T07:29:24.477Z,102199.28
2022-08-29T07:31:56.960Z,102191.19
2022-08-29T07:34:26.327Z,102199.97
2022-08-29T07:36:55.694Z,102198.59
2022-08-29T07:39:25.374Z,102196.09
2022-08-29T07:41:54.754Z,102200.13
2022-08-29T07:44:24.169Z,102200.72
2022-08-29T07:46:58.773Z,102199.22
2022-08-29T07:49:40.593Z,102191.13
2022-08-29T07:52:11.176Z,102185.78
2022-08-29T07:54:40.532Z,102191.44
2022-08-29T07:57:15.585Z,102194.28
2022-08-29T07:59:44.956Z,102189.84
2022-08-29T08:02:17.466Z,102194.81
2022-08-29T08:04:46.946Z,102198.16
2022-08-29T08:07:21.717Z,102201.25
2022-08-29T08:09:59.107Z,102193.88
2022-08-29T08:12:28.502Z,102192.34
2022-08-29T08:14:59.601Z,102180.88
2022-08-29T08:17:29.046Z,102184.41
2022-08-29T08:19:58.344Z,102178.75
2022-08-29T08:22:27.789Z,102179.72
2022-08-29T08:24:57.319Z,102179.13
2022-08-29T08:27:26.744Z,102182.97
2022-08-29T08:29:59.735Z,102184.59
2022-08-29T08:32:32.702Z,102183.94
2022-08-29T08:35:02.404Z,102181.41
2022-08-29T08:37:31.919Z,102186.97
2022-08-29T08:40:02.247Z,102191.41
2022-08-29T08:42:46.773Z,102200.16
2022-08-29T08:45:31.853Z,102198.91
2022-08-29T08:48:09.034Z,102185.59
2022-08-29T08:50:52.472Z,102192.44
2022-08-29T08:53:43.511Z,102192.75
2022-08-29T08:56:22.423Z,102189.19
2022-08-29T08:58:56.747Z,102188.28
2022-08-29T09:01:40.033Z,102196.88
2022-08-29T09:04:41.960Z,102189.09
2022-08-29T09:07:27.017Z,102194.06
2022-08-29T09:10:21.207Z,102191.56
2022-08-29T09:13:19.134Z,102191.59
2022-08-29T09:15:51.088Z,102200.53
2022-08-29T09:18:27.248Z,102188.72
2022-08-29T09:20:57.150Z,102190.13
2022-08-29T09:23:46.637Z,102187.69
2022-08-29T09:26:20.107Z,102195.28
2022-08-29T09:28:50.423Z,102198.66
2022-08-29T09:31:37.680Z,102203.38
2022-08-29T09:34:12.785Z,102204.47
2022-08-29T09:36:53.597Z,102196.28
2022-08-29T09:39:25.963Z,102186.94
2022-08-29T09:42:00.029Z,102194.25
2022-08-29T09:44:34.775Z,102194.34
2022-08-29T09:47:10.843Z,102189.75
2022-08-29T09:49:42.996Z,102187.75
2022-08-29T09:52:17.013Z,102184.38
2022-08-29T09:54:47.389Z,102178.69
2022-08-29T09:57:31.862Z,102184.50
2022-08-29T10:00:29.748Z,102181.13
2022-08-29T10:03:02.759Z,102178.94
2022-08-29T10:05:45.449Z,102172.53
2022-08-29T10:08:38.034Z,102178.78
2022-08-29T10:11:24.623Z,102189.28
2022-08-29T10:13:58.608Z,102176.41
2022-08-29T10:16:39.900Z,102189.44
2022-08-29T10:19:24.022Z,102189.31
2022-08-29T10:22:05.353Z,102182.28
2022-08-29T10:25:16.805Z,102188.47
2022-08-29T10:27:56.549Z,102189.03
2022-08-29T10:30:31.466Z,102189.13
2022-08-29T10:33:36.275Z,102190.03
2022-08-29T10:36:37.495Z,102177.13
2022-08-29T10:39:20.716Z,102170.94
2022-08-29T10:42:01.545Z,102174.34
2022-08-29T10:44:43.031Z,102168.25
2022-08-29T10:47:23.675Z,102164.44
2022-08-29T10:50:45.697Z,102171.25
2022-08-29T10:53:21.351Z,102159.00
2022-08-29T10:56:01.098Z,102158.19
2022-08-29T10:59:09.478Z,102155.13
2022-08-29T11:01:48.307Z,102153.53
2022-08-29T11:04:23.462Z,102148.63
2022-08-29T11:06:57.962Z,102148.44
2022-08-29T11:09:32.519Z,102148.06
2022-08-29T11:12:20.337Z,102149.50
2022-08-29T11:14:55.907Z,102150.81
2022-08-29T11:17:29.746Z,102145.53
2022-08-29T11:20:21.672Z,102141.13
2022-08-29T11:23:22.190Z,102137.81
2022-08-29T11:25:52.170Z,102131.84
2022-08-29T11:31:57.120Z,102126.53
2022-08-29T11:34:31.450Z,102128.09
2022-08-29T11:37:28.961Z,102127.50
2022-08-29T11:40:11.821Z,102119.56
2022-08-29T11:42:53.445Z,102105.19
2022-08-29T11:45:37.265Z,102110.00
2022-08-29T11:48:32.099Z,102103.88
2022-08-29T11:51:01.696Z,102106.00
2022-08-29T11:53:37.649Z,102110.47
2022-08-29T11:56:16.092Z,102110.28
2022-08-29T11:58:50.109Z,102107.50
2022-08-29T12:01:39.800Z,102109.75
2022-08-29T12:04:12.187Z,102106.59
2022-08-29T12:06:57.331Z,102107.88
2022-08-29T12:09:48.931Z,102115.25
2022-08-29T12:12:21.773Z,102103.31
2022-08-29T12:14:53.352Z,102106.09
2022-08-29T12:17:22.595Z,102106.63
2022-08-29T12:19:59.722Z,102110.72
2022-08-29T12:22:48.799Z,102107.28
2022-08-29T12:25:30.002Z,102096.63
2022-08-29T12:28:21.009Z,102097.97
2022-08-29T12:30:54.136Z,102098.94
2022-08-29T12:33:23.430Z,102096.75
2022-08-29T12:36:10.898Z,102096.56
2022-08-29T12:38:53.389Z,102082.88
2022-08-29T12:41:51.921Z,102102.09
2022-08-29T12:44:29.403Z,102084.75
2022-08-29T12:47:05.713Z,102081.28
2022-08-29T12:50:10.153Z,102075.59
2022-08-29T12:52:42.308Z,102066.72
2022-08-29T12:55:28.763Z,102061.72
2022-08-29T12:58:00.085Z,102057.13
2022-08-29T13:00:34.071Z,102058.41
2022-08-29T13:03:22.111Z,102059.97
2022-08-29T13:05:51.540Z,102057.59
2022-08-29T13:08:33.781Z,102059.63
2022-08-29T13:11:05.215Z,102049.72
2022-08-29T13:13:35.908Z,102054.47
2022-08-29T13:16:09.343Z,102059.22
2022-08-29T13:18:59.833Z,102055.06
2022-08-29T13:21:35.551Z,102051.31
2022-08-29T13:24:04.951Z,102050.56
2022-08-29T13:26:35.416Z,102036.78
2022-08-29T13:29:23.715Z,102045.28
2022-08-29T13:32:26.980Z,102041.19
2022-08-29T13:35:21.829Z,102034.91
2022-08-29T13:38:23.811Z,102029.19
2022-08-29T13:40:56.279Z,102017.72
2022-08-29T13:43:46.016Z,102028.44
2022-08-29T13:46:15.534Z,102027.81
2022-08-29T13:48:45.771Z,102026.44
2022-08-29T13:51:15.735Z,102016.63
2022-08-29T13:53:45.612Z,102030.91
2022-08-29T13:56:34.865Z,102017.22
2022-08-29T13:59:05.315Z,102018.09
2022-08-29T14:04:38.275Z,102004.03
2022-08-29T14:07:11.295Z,102004.50
2022-08-29T14:09:45.715Z,102000.44
2022-08-29T14:12:16.042Z,102000.66
2022-08-29T14:14:49.705Z,102007.53
2022-08-29T14:17:20.987Z,102004.16
2022-08-29T14:19:50.516Z,101997.16
2022-08-29T14:22:19.966Z,101997.16
2022-08-29T14:24:52.870Z,101993.13
2022-08-29T14:27:23.908Z,101989.28
2022-08-29T14:29:54.076Z,101979.00
2022-08-29T14:32:24.342Z,101988.84
2022-08-29T14:34:57.944Z,101990.69
2022-08-29T14:37:27.290Z,101991.44
2022-08-29T14:39:56.742Z,101981.69
2022-08-29T14:42:27.667Z,101988.53
2022-08-29T14:44:56.971Z,101984.19
2022-08-29T14:47:26.273Z,101978.69
2022-08-29T14:49:55.607Z,101981.28
2022-08-29T14:52:25.348Z,101978.41
2022-08-29T14:54:55.120Z,101969.50
2022-08-29T14:57:24.514Z,101978.09
2022-08-29T14:59:54.087Z,101970.81
2022-08-29T15:02:23.451Z,101968.72
2022-08-29T15:04:54.870Z,101960.88
2022-08-29T15:07:24.219Z,101967.56
2022-08-29T15:09:53.642Z,101959.72
2022-08-29T15:12:24.972Z,101970.22
2022-08-29T15:14:54.327Z,101961.31
2022-08-29T15:17:24.107Z,101957.56
2022-08-29T15:22:44.863Z,101951.47
2022-08-29T15:25:20.718Z,101939.69
2022-08-29T15:27:50.184Z,101936.59
2022-08-29T15:30:23.665Z,101941.03
2022-08-29T15:32:53.379Z,101943.66
2022-08-29T15:35:22.995Z,101932.13
2022-08-29T15:37:54.413Z,101931.19
2022-08-29T15:40:24.285Z,101931.88
2022-08-29T15:42:53.899Z,101927.66
2022-08-29T15:45:23.419Z,101915.69
2022-08-29T15:47:54.395Z,101919.19
2022-08-29T15:50:24.640Z,101918.97
2022-08-29T15:52:54.452Z,101911.34
2022-08-29T15:55:25.483Z,101923.72
2022-08-29T15:57:54.899Z,101918.75
2022-08-29T16:00:30.080Z,101918.75
2022-08-29T16:03:02.665Z,101912.63
2022-08-29T16:05:32.846Z,101903.44
2022-08-29T16:08:02.521Z,101918.75
2022-08-29T16:10:32.692Z,101904.38
2022-08-29T16:13:06.277Z,101899.63
2022-08-29T16:15:35.739Z,101904.38
2022-08-29T16:18:05.936Z,101893.84
2022-08-29T16:20:37.268Z,101909.03
2022-08-29T16:23:07.332Z,101903.03
2022-08-29T16:25:36.876Z,101906.41
2022-08-29T16:28:06.415Z,101909.56
2022-08-29T16:30:38.014Z,101910.81
2022-08-29T16:33:15.112Z,101909.97
2022-08-29T16:35:45.099Z,101910.47
2022-08-29T16:40:44.971Z,101911.50
2022-08-29T16:43:15.615Z,101913.03
2022-08-29T16:45:45.145Z,101908.34
2022-08-29T16:48:18.139Z,101909.38
2022-08-29T16:50:47.671Z,101894.06
2022-08-29T16:53:17.100Z,101905.59
2022-08-29T16:55:46.479Z,101909.00
2022-08-29T16:58:28.410Z,101905.59
2022-08-29T17:00:57.809Z,101905.38
2022-08-29T17:03:27.408Z,101899.25
2022-08-29T17:05:56.739Z,101910.19
2022-08-29T17:08:23.356Z,101898.88
2022-08-29T17:10:49.933Z,101892.53
2022-08-29T17:13:17.022Z,101892.53
2022-08-29T17:15:43.607Z,101893.03
2022-08-29T17:18:13.137Z,101901.41
2022-08-29T17:20:46.399Z,101900.84
2022-08-29T17:23:16.085Z,101907.63
2022-08-29T17:25:45.509Z,101902.88
2022-08-29T17:28:18.112Z,101901.22
2022-08-29T17:30:49.405Z,101900.63
2022-08-29T17:33:21.349Z,101902.44
2022-08-29T17:35:51.515Z,101905.53
2022-08-29T17:38:21.588Z,101903.88
2022-08-29T17:40:51.624Z,101906.41
2022-08-29T17:43:22.054Z,101909.31
2022-08-29T17:45:51.458Z,101906.44
2022-08-29T17:48:21.876Z,101907.44
2022-08-29T17:50:52.411Z,101904.38
2022-08-29T17:53:23.096Z,101905.28
2022-08-29T17:55:52.464Z,101896.28
2022-08-29T17:58:24.030Z,101901.66
2022-08-29T18:00:54.697Z,101904.47
2022-08-29T18:03:24.933Z,101913.81
2022-08-29T18:05:54.259Z,101902.41
2022-08-29T18:08:23.608Z,101915.59
2022-08-29T18:10:52.968Z,101925.31
2022-08-29T18:13:22.476Z,101920.31
2022-08-29T18:15:52.887Z,101920.31
2022-08-29T18:18:23.432Z,101925.69
2022-08-29T18:20:53.044Z,101923.34
2022-08-29T18:23:22.545Z,101921.66
2022-08-29T18:25:52.041Z,101924.44
2022-08-29T18:28:21.911Z,101927.16
2022-08-29T18:30:51.744Z,101918.63
2022-08-29T18:33:21.188Z,101918.00
2022-08-29T18:35:50.607Z,101918.19
2022-08-29T18:38:20.894Z,101915.19
2022-08-29T18:40:51.203Z,101914.94
2022-08-29T18:43:23.870Z,101908.56
2022-08-29T18:45:53.334Z,101913.72
2022-08-29T18:48:25.470Z,101929.25
2022-08-29T18:51:00.246Z,101920.63
2022-08-29T18:53:32.811Z,101924.53
2022-08-29T18:56:03.903Z,101922.50
2022-08-29T18:58:35.574Z,101927.16
2022-08-29T19:01:27.149Z,101921.75
2022-08-29T19:03:58.412Z,101918.91
2022-08-29T19:06:27.843Z,101924.19
2022-08-29T19:08:59.918Z,101922.16
2022-08-29T19:11:29.936Z,101919.59
2022-08-29T19:13:59.270Z,101913.69
2022-08-29T19:16:28.687Z,101926.31
2022-08-29T19:18:58.115Z,101933.00
2022-08-29T19:21:26.246Z,101932.06
2022-08-29T19:23:56.548Z,101934.59
2022-08-29T19:26:34.309Z,101929.97
2022-08-29T19:29:09.389Z,101935.56
2022-08-29T19:31:38.819Z,101937.47
2022-08-29T19:34:08.271Z,101936.03
2022-08-29T19:36:39.231Z,101939.69
2022-08-29T19:39:08.744Z,101940.97
2022-08-29T19:41:38.100Z,101941.91
2022-08-29T19:44:07.452Z,101945.75
2022-08-29T19:46:39.103Z,101941.59
2022-08-29T19:49:12.006Z,101938.72
2022-08-29T19:51:42.311Z,101940.03
2022-08-29T19:54:13.844Z,101938.41
2022-08-29T19:56:46.724Z,101938.88
2022-08-29T19:59:17.195Z,101937.75
2022-08-29T20:01:48.141Z,101939.53
2022-08-29T20:04:17.541Z,101931.09
2022-08-29T20:06:49.119Z,101931.69
2022-08-29T20:12:09.093Z,101927.84
2022-08-29T20:14:42.787Z,101924.81
2022-08-29T20:17:12.344Z,101921.78
2022-08-29T20:19:42.312Z,101928.94
2022-08-29T20:22:11.719Z,101937.66
2022-08-29T20:24:41.716Z,101928.59
2022-08-29T20:27:11.099Z,101931.47
2022-08-29T20:29:42.447Z,101941.13
2022-08-29T20:32:12.241Z,101934.75
2022-08-29T20:34:43.483Z,101937.75
2022-08-29T20:37:10.521Z,101940.19
2022-08-29T20:39:42.815Z,101938.25
2022-08-29T20:42:12.131Z,101935.19
2022-08-29T20:44:43.773Z,101938.19
2022-08-29T20:47:19.260Z,101933.44
2022-08-29T20:49:50.460Z,101946.47
2022-08-29T20:52:22.114Z,101943.28
2022-08-29T20:54:51.483Z,101950.75
2022-08-29T20:57:20.965Z,101938.50
2022-08-29T20:59:50.357Z,101955.66
2022-08-29T21:02:19.712Z,101953.44
2022-08-29T21:05:01.566Z,101948.66
2022-08-29T21:07:30.951Z,101952.44
2022-08-29T21:10:02.043Z,101953.84
2022-08-29T21:12:31.728Z,101959.22
2022-08-29T21:15:01.385Z,101956.84
2022-08-29T21:17:30.717Z,101960.63
2022-08-29T21:20:00.069Z,101944.38
2022-08-29T21:22:29.413Z,101961.41
2022-08-29T21:24:58.816Z,101960.13
2022-08-29T21:27:29.212Z,101948.25
2022-08-29T21:29:58.883Z,101951.56
2022-08-29T21:32:28.254Z,101952.34
2022-08-29T21:34:57.640Z,101966.00
2022-08-29T21:37:27.327Z,101951.06
2022-08-29T21:39:56.772Z,101955.16
2022-08-29T21:42:26.104Z,101957.38
2022-08-29T21:44:58.004Z,101949.72
2022-08-29T21:47:27.493Z,101957.06
2022-08-29T21:49:57.155Z,101954.66
2022-08-29T21:52:26.495Z,101954.66
2022-08-29T21:54:55.983Z,101948.16
2022-08-29T21:57:37.874Z,101960.16
2022-08-29T22:00:09.496Z,101963.03
2022-08-29T22:02:40.332Z,101962.69
2022-08-29T22:05:12.572Z,101951.19
2022-08-29T22:07:42.937Z,101967.44
2022-08-29T22:10:16.679Z,101968.34
2022-08-29T22:12:46.838Z,101970.09
2022-08-29T22:15:29.561Z,101973.56
2022-08-29T22:17:58.946Z,101973.44
2022-08-29T22:20:28.531Z,101972.44
2022-08-29T22:22:57.897Z,101982.72
2022-08-29T22:25:27.725Z,101994.63
2022-08-29T22:27:58.628Z,101987.81
2022-08-29T22:30:32.084Z,101991.22
2022-08-29T22:33:03.830Z,101991.69
2022-08-29T22:35:33.334Z,101989.78
2022-08-29T22:38:02.773Z,101984.19
2022-08-29T22:40:32.214Z,101990.72
2022-08-29T22:43:01.751Z,101993.25
2022-08-29T22:45:31.718Z,101994.16
2022-08-29T22:48:01.234Z,101994.16
2022-08-29T22:50:31.184Z,101987.66
2022-08-29T22:53:02.062Z,101991.06
2022-08-29T22:55:33.119Z,101993.94
2022-08-29T22:58:02.470Z,101989.50
2022-08-29T23:00:33.132Z,101991.06
2022-08-29T23:03:03.314Z,101988.00
2022-08-29T23:05:32.801Z,101992.13
2022-08-29T23:08:02.195Z,101994.66
2022-08-29T23:10:32.097Z,101992.25
2022-08-29T23:13:01.476Z,101988.22
2022-08-29T23:15:30.910Z,102000.59
2022-08-29T23:18:02.365Z,101996.47
2022-08-29T23:20:31.719Z,101986.66
2022-08-29T23:23:04.007Z,101993.06
2022-08-29T23:25:37.863Z,101993.84
2022-08-29T23:28:07.256Z,101989.28
2022-08-29T23:30:36.751Z,101997.84
2022-08-29T23:33:06.203Z,101999.78
2022-08-29T23:35:38.378Z,101996.91
2022-08-29T23:38:08.036Z,101997.84
2022-08-29T23:40:38.882Z,101992.13
2022-08-29T23:43:09.012Z,101977.94
2022-08-29T23:45:38.415Z,101987.34
2022-08-29T23:48:07.968Z,101987.47
2022-08-29T23:50:37.285Z,102003.78
2022-08-29T23:53:06.677Z,101987.47
2022-08-29T23:55:37.232Z,101987.59
2022-08-29T23:58:06.948Z,101988.50
